Time;durP1;ratioP1;P1;durP2;ratioP2;P2;SDS_P1;SDS_P2;PMS_P1;PMS_P2;Temp;Humidity;BMP_temperature;BMP_pressure;BME280_temperature;BME280_humidity;BME280_pressure;Samples;Min_cycle;Max_cycle;Signal;HPM_P1;HPM_P2
2022/06/09 12:09:42;;;;;;;;;;;27.80;47.50;;;;;;5013615;28;19921;-59
2022/06/09 12:12:26;;;;;;;;;;;27.80;47.20;;;;;;5011917;28;19913;-59
2022/06/09 12:15:10;;;;;;;;;;;27.90;45.60;;;;;;5004838;28;20003;-59
2022/06/09 12:17:36;;;;;;;;;;;27.90;46.70;;;;;;4994515;28;19912;-57
2022/06/09 12:20:08;;;;;;;;;;;28.00;47.50;;;;;;4993311;28;19909;-58
2022/06/09 12:22:46;;;;;;;;;;;28.20;47.60;;;;;;5009185;23;19925;-61
2022/06/09 12:25:12;;;;;;;;;;;28.30;46.10;;;;;;4994081;28;20388;-61
2022/06/09 12:27:37;;;;;;;;;;;28.30;45.10;;;;;;5012297;28;19905;-61
2022/06/09 12:30:03;;;;;;;;;;;28.40;45.80;;;;;;5012616;28;19934;-61
2022/06/09 12:32:29;;;;;;;;;;;28.50;46.20;;;;;;5002899;28;19941;-61
2022/06/09 12:34:55;;;;;;;;;;;28.70;45.70;;;;;;4993138;28;20317;-61
2022/06/09 12:37:41;;;;;;;;;;;28.80;42.00;;;;;;4992633;28;19936;-61
2022/06/09 12:40:14;;;;;;;;;;;28.90;44.30;;;;;;4991808;28;20382;-61
2022/06/09 12:43:00;;;;;;;;;;;29.10;43.70;;;;;;4992772;28;20016;-61
2022/06/09 12:45:28;;;;;;;;;;;29.30;44.60;;;;;;4992938;28;19910;-61
2022/06/09 12:48:09;;;;;;;;;;;29.50;43.80;;;;;;4992302;28;19909;-61
2022/06/09 12:50:40;;;;;;;;;;;29.50;44.20;;;;;;4992316;28;19940;-61
2022/06/09 12:53:07;;;;;;;;;;;29.50;44.20;;;;;;4992451;28;19906;-61
2022/06/09 12:55:35;;;;;;;;;;;29.40;43.80;;;;;;4992574;28;19913;-61
2022/06/09 12:58:10;;;;;;;;;;;29.40;43.10;;;;;;4992318;28;20022;-61
2022/06/09 13:00:40;;;;;;;;;;;29.30;41.70;;;;;;4992432;28;19910;-61
2022/06/09 13:03:26;;;;;;;;;;;29.10;43.00;;;;;;4974866;28;19910;-61
2022/06/09 13:05:51;;;;;;;;;;;29.00;43.20;;;;;;4992255;28;20406;-61
2022/06/09 13:08:22;;;;;;;;;;;28.90;44.40;;;;;;4992114;28;20355;-61
2022/06/09 13:11:01;;;;;;;;;;;28.90;43.80;;;;;;4992586;28;19956;-61
2022/06/09 13:13:45;;;;;;;;;;;29.10;42.90;;;;;;4975395;28;19909;-62
2022/06/09 13:16:12;;;;;;;;;;;29.40;44.70;;;;;;4996329;28;20440;-62
2022/06/09 13:18:43;;;;;;;;;;;29.70;43.70;;;;;;4995802;28;19917;-62
2022/06/09 13:21:12;;;;;;;;;;;29.90;44.00;;;;;;4995900;28;20286;-60
2022/06/09 13:23:39;;;;;;;;;;;30.40;42.90;;;;;;4996080;28;19918;-62
2022/06/09 13:26:06;;;;;;;;;;;31.40;44.00;;;;;;4996139;28;19952;-62
2022/06/09 13:28:46;;;;;;;;;;;32.70;43.00;;;;;;4995636;28;20426;-62
2022/06/09 13:31:27;;;;;;;;;;;33.70;41.00;;;;;;4996134;28;19905;-62
2022/06/09 13:33:58;;;;;;;;;;;33.90;38.20;;;;;;4978749;28;19910;-62
2022/06/09 13:36:26;;;;;;;;;;;33.80;38.30;;;;;;4995723;28;19910;-62
2022/06/09 13:38:51;;;;;;;;;;;34.20;37.40;;;;;;4995534;28;20390;-62
2022/06/09 13:41:28;;;;;;;;;;;35.00;35.70;;;;;;4994791;28;19948;-62
2022/06/09 13:43:56;;;;;;;;;;;35.40;35.10;;;;;;4994903;28;20013;-61
2022/06/09 13:46:29;;;;;;;;;;;34.70;34.10;;;;;;4990316;28;19915;-61
2022/06/09 13:49:03;;;;;;;;;;;33.70;36.30;;;;;;5014524;28;19905;-64
2022/06/09 13:51:35;;;;;;;;;;;32.80;35.80;;;;;;4996090;28;19985;-62
2022/06/09 13:54:00;;;;;;;;;;;32.30;36.90;;;;;;4995250;28;19916;-62
2022/06/09 13:56:26;;;;;;;;;;;32.10;37.70;;;;;;4995409;28;19910;-62
2022/06/09 13:58:52;;;;;;;;;;;32.10;37.80;;;;;;4993900;28;20425;-61
2022/06/09 14:01:17;;;;;;;;;;;33.00;38.40;;;;;;4977510;28;19997;-63
2022/06/09 14:03:46;;;;;;;;;;;34.80;37.00;;;;;;4995024;28;19921;-61
2022/06/09 14:06:15;;;;;;;;;;;37.00;33.70;;;;;;4994529;28;19925;-61
2022/06/09 14:08:42;;;;;;;;;;;39.10;31.40;;;;;;4994582;28;19957;-63
2022/06/09 14:11:10;;;;;;;;;;;40.60;30.00;;;;;;4994672;28;19984;-64
2022/06/09 14:13:36;;;;;;;;;;;41.20;28.20;;;;;;5001975;28;19985;-61
2022/06/09 14:16:02;;;;;;;;;;;41.30;27.40;;;;;;5014488;28;20431;-61
2022/06/09 14:18:29;;;;;;;;;;;42.10;27.40;;;;;;5004409;28;19960;-61
2022/06/09 14:20:57;;;;;;;;;;;42.40;27.20;;;;;;4995059;28;19945;-64
2022/06/09 14:23:25;;;;;;;;;;;41.90;27.90;;;;;;4995053;28;19914;-64
2022/06/09 14:26:01;;;;;;;;;;;41.90;27.30;;;;;;4976367;28;19996;-62
2022/06/09 14:28:28;;;;;;;;;;;41.10;27.20;;;;;;4993876;28;19918;-62
2022/06/09 14:30:53;;;;;;;;;;;39.30;28.70;;;;;;5005949;28;19929;-61
2022/06/09 14:33:19;;;;;;;;;;;37.90;29.70;;;;;;4995015;28;19905;-61
2022/06/09 14:35:45;;;;;;;;;;;36.50;30.00;;;;;;4993778;28;19961;-63
2022/06/09 14:38:12;;;;;;;;;;;36.20;32.70;;;;;;4994457;28;20004;-64
2022/06/09 14:40:38;;;;;;;;;;;37.10;31.90;;;;;;4994436;28;20362;-63
2022/06/09 14:43:05;;;;;;;;;;;38.00;29.80;;;;;;4977286;28;20285;-63
2022/06/09 14:45:30;;;;;;;;;;;38.10;29.30;;;;;;4994751;28;19906;-63
2022/06/09 14:47:56;;;;;;;;;;;38.60;27.90;;;;;;4992507;28;19910;-63
2022/06/09 14:50:23;;;;;;;;;;;38.70;26.70;;;;;;4993205;28;19972;-63
2022/06/09 14:52:49;;;;;;;;;;;37.80;26.80;;;;;;4994148;28;20103;-62
2022/06/09 14:55:16;;;;;;;;;;;36.80;27.60;;;;;;4994351;28;19932;-62
2022/06/09 14:57:41;;;;;;;;;;;36.10;28.30;;;;;;4994033;28;19916;-62
2022/06/09 15:00:13;;;;;;;;;;;35.30;29.40;;;;;;4993347;28;20293;-63
2022/06/09 15:02:39;;;;;;;;;;;34.50;30.90;;;;;;4976534;28;19913;-63
2022/06/09 15:05:06;;;;;;;;;;;33.80;31.10;;;;;;4994270;28;20319;-55
2022/06/09 15:07:32;;;;;;;;;;;33.10;31.80;;;;;;4993274;28;19914;-55
2022/06/09 15:09:58;;;;;;;;;;;32.50;32.30;;;;;;4993569;28;20489;-55
2022/06/09 15:12:23;;;;;;;;;;;31.90;33.20;;;;;;4994132;28;19913;-55
2022/06/09 15:14:49;;;;;;;;;;;31.20;33.80;;;;;;4994192;28;19917;-54
2022/06/09 15:17:16;;;;;;;;;;;30.90;34.70;;;;;;4993836;28;19964;-54
2022/06/09 15:19:41;;;;;;;;;;;30.50;35.10;;;;;;4994002;28;19905;-54
2022/06/09 15:22:07;;;;;;;;;;;30.30;35.40;;;;;;4993934;28;19920;-53
2022/06/09 15:24:33;;;;;;;;;;;30.10;35.20;;;;;;4976421;28;19909;-55
2022/06/09 15:26:59;;;;;;;;;;;30.00;35.80;;;;;;4993916;28;19909;-54
2022/06/09 15:29:24;;;;;;;;;;;30.00;35.80;;;;;;4993745;28;19989;-54
2022/06/09 15:31:50;;;;;;;;;;;29.90;34.00;;;;;;4993944;28;20312;-55
2022/06/09 15:34:21;;;;;;;;;;;30.10;35.30;;;;;;4993694;28;19909;-57
2022/06/09 15:36:49;;;;;;;;;;;30.10;34.20;;;;;;4993429;28;19912;-56
2022/06/09 15:39:14;;;;;;;;;;;30.20;34.40;;;;;;4993559;28;19905;-55
2022/06/09 15:41:40;;;;;;;;;;;30.10;32.90;;;;;;4993511;28;19976;-53
2022/06/09 15:44:05;;;;;;;;;;;29.80;33.60;;;;;;4993527;28;19914;-54
2022/06/09 15:46:31;;;;;;;;;;;29.60;34.80;;;;;;4993647;28;19988;-53
2022/06/09 15:48:56;;;;;;;;;;;29.40;34.30;;;;;;4993294;28;19905;-53
2022/06/09 15:51:23;;;;;;;;;;;29.30;35.30;;;;;;4993468;28;19963;-56
2022/06/09 15:53:49;;;;;;;;;;;29.10;35.20;;;;;;4993357;28;19906;-57
2022/06/09 15:56:14;;;;;;;;;;;28.60;34.50;;;;;;4993146;28;20012;-56
2022/06/09 15:58:40;;;;;;;;;;;28.20;36.10;;;;;;4993211;28;19905;-54
2022/06/09 16:01:11;;;;;;;;;;;28.00;35.50;;;;;;4993171;28;20282;-60
2022/06/09 16:03:36;;;;;;;;;;;27.90;37.30;;;;;;4993191;28;19916;-60
2022/06/09 16:06:02;;;;;;;;;;;28.00;37.30;;;;;;4993287;28;19906;-64
2022/06/09 16:08:28;;;;;;;;;;;27.90;36.70;;;;;;4993131;28;19906;-63
2022/06/09 16:10:55;;;;;;;;;;;27.80;35.80;;;;;;4993151;28;19933;-53
2022/06/09 16:13:21;;;;;;;;;;;27.80;37.60;;;;;;4993085;28;19912;-54
2022/06/09 16:15:49;;;;;;;;;;;27.90;36.60;;;;;;4992864;28;19910;-55
2022/06/09 16:18:15;;;;;;;;;;;28.10;36.90;;;;;;4992935;28;19954;-54
2022/06/09 16:20:42;;;;;;;;;;;28.30;33.90;;;;;;4992873;28;19905;-55
2022/06/09 16:23:08;;;;;;;;;;;28.40;36.40;;;;;;4992219;28;19917;-57
2022/06/09 16:25:34;;;;;;;;;;;28.50;37.30;;;;;;4992592;28;19936;-55
2022/06/09 16:28:02;;;;;;;;;;;28.50;38.40;;;;;;4992644;28;19949;-54
2022/06/09 16:30:28;;;;;;;;;;;28.60;40.60;;;;;;4991764;28;19912;-55
2022/06/09 16:32:54;;;;;;;;;;;28.70;40.90;;;;;;4992810;28;19909;-55
2022/06/09 16:35:20;;;;;;;;;;;28.80;40.50;;;;;;4992777;28;19975;-55
2022/06/09 16:37:46;;;;;;;;;;;28.70;40.70;;;;;;4992605;28;20392;-57
2022/06/09 16:40:13;;;;;;;;;;;28.50;42.30;;;;;;4992698;28;20024;-57
2022/06/09 16:42:39;;;;;;;;;;;28.30;42.40;;;;;;4992692;28;19910;-57
2022/06/09 16:45:05;;;;;;;;;;;28.20;42.30;;;;;;4975364;28;19912;-54
2022/06/09 16:47:31;;;;;;;;;;;28.20;42.50;;;;;;4991991;28;20365;-52
2022/06/09 16:50:00;;;;;;;;;;;28.00;42.50;;;;;;4992048;28;19910;-58
2022/06/09 16:52:26;;;;;;;;;;;27.90;43.10;;;;;;4992613;28;19968;-57
2022/06/09 16:54:52;;;;;;;;;;;28.10;43.00;;;;;;4992709;28;19937;-60
2022/06/09 16:57:17;;;;;;;;;;;28.10;43.00;;;;;;4992439;28;20362;-55
2022/06/09 16:59:43;;;;;;;;;;;28.00;43.30;;;;;;4992688;28;19968;-54
2022/06/09 17:02:09;;;;;;;;;;;28.00;43.60;;;;;;4992525;28;20472;-55
2022/06/09 17:04:35;;;;;;;;;;;27.90;43.40;;;;;;4991864;28;19917;-57
2022/06/09 17:07:00;;;;;;;;;;;27.70;43.40;;;;;;4990893;28;20329;-59
2022/06/09 17:09:27;;;;;;;;;;;27.50;43.70;;;;;;4991625;28;19989;-57
2022/06/09 17:11:52;;;;;;;;;;;27.40;44.60;;;;;;4991580;28;19964;-58
2022/06/09 17:14:18;;;;;;;;;;;27.30;43.90;;;;;;4991400;28;19910;-56
2022/06/09 17:16:44;;;;;;;;;;;27.30;43.90;;;;;;4992460;28;19960;-56
2022/06/09 17:19:09;;;;;;;;;;;27.20;44.20;;;;;;4992191;28;20333;-56
2022/06/09 17:21:36;;;;;;;;;;;27.10;43.90;;;;;;4992106;28;19906;-59
2022/06/09 17:24:02;;;;;;;;;;;27.00;43.70;;;;;;4991876;28;19917;-59
2022/06/09 17:26:28;;;;;;;;;;;26.90;43.60;;;;;;4992201;28;19910;-58
2022/06/09 17:28:53;;;;;;;;;;;26.90;43.70;;;;;;4992586;28;19941;-60
2022/06/09 17:31:20;;;;;;;;;;;27.10;43.40;;;;;;4992376;28;20156;-59
2022/06/09 17:33:46;;;;;;;;;;;27.20;42.40;;;;;;4992189;28;20008;-59
2022/06/09 17:36:12;;;;;;;;;;;27.30;42.70;;;;;;4992123;28;19997;-58
2022/06/09 17:38:37;;;;;;;;;;;27.10;42.50;;;;;;4992030;28;19905;-58
2022/06/09 17:41:03;;;;;;;;;;;27.00;42.60;;;;;;4974680;28;20207;-57
2022/06/09 17:43:29;;;;;;;;;;;27.00;41.70;;;;;;4991994;28;19920;-56
2022/06/09 17:45:54;;;;;;;;;;;26.80;42.20;;;;;;4992200;28;19956;-58
2022/06/09 17:48:20;;;;;;;;;;;26.60;41.70;;;;;;4991837;28;20004;-58
2022/06/09 17:50:46;;;;;;;;;;;26.40;42.00;;;;;;4991993;28;19953;-59
2022/06/09 17:53:12;;;;;;;;;;;26.30;42.00;;;;;;4992064;28;19993;-59
2022/06/09 17:55:38;;;;;;;;;;;26.30;42.90;;;;;;4992082;28;20425;-57
2022/06/09 17:58:05;;;;;;;;;;;26.30;43.10;;;;;;4991967;28;19906;-59
2022/06/09 18:00:32;;;;;;;;;;;26.40;43.10;;;;;;4994054;28;19934;-59
2022/06/09 18:02:58;;;;;;;;;;;26.30;43.60;;;;;;4995328;28;19992;-58
2022/06/09 18:05:24;;;;;;;;;;;26.20;44.30;;;;;;4995435;28;20000;-57
2022/06/09 18:07:50;;;;;;;;;;;26.20;44.20;;;;;;4995348;28;20316;-58
2022/06/09 18:10:19;;;;;;;;;;;26.10;44.10;;;;;;4995351;28;19906;-57
2022/06/09 18:12:45;;;;;;;;;;;25.90;44.80;;;;;;4995335;28;19906;-58
2022/06/09 18:15:11;;;;;;;;;;;25.80;45.20;;;;;;4995349;28;20282;-59
2022/06/09 18:17:37;;;;;;;;;;;25.70;45.50;;;;;;4994920;28;19913;-60
2022/06/09 18:20:04;;;;;;;;;;;25.60;46.40;;;;;;4995298;28;19905;-60
2022/06/09 18:22:29;;;;;;;;;;;25.60;46.10;;;;;;5005697;23;20007;-58
2022/06/09 18:24:55;;;;;;;;;;;25.50;46.00;;;;;;5033077;28;20385;-58
2022/06/09 18:27:20;;;;;;;;;;;25.40;46.00;;;;;;5034096;28;19905;-59
2022/06/09 18:29:46;;;;;;;;;;;25.20;46.40;;;;;;5034460;28;20000;-57
2022/06/09 18:32:11;;;;;;;;;;;25.00;46.20;;;;;;5030967;28;19909;-57
2022/06/09 18:34:37;;;;;;;;;;;24.90;46.60;;;;;;5033270;28;20373;-58
2022/06/09 18:37:03;;;;;;;;;;;24.90;47.40;;;;;;5033366;28;19909;-58
2022/06/09 18:39:28;;;;;;;;;;;24.90;46.70;;;;;;5033484;28;19913;-58
2022/06/09 18:41:55;;;;;;;;;;;24.70;47.00;;;;;;5033108;28;19988;-57
2022/06/09 18:44:20;;;;;;;;;;;24.50;47.10;;;;;;5033498;28;19913;-57
2022/06/09 18:46:46;;;;;;;;;;;24.50;47.40;;;;;;5033100;28;20373;-58
2022/06/09 18:49:11;;;;;;;;;;;24.40;47.40;;;;;;5033634;28;19905;-57
2022/06/09 18:51:37;;;;;;;;;;;24.40;48.00;;;;;;5033525;28;19909;-56
2022/06/09 18:54:03;;;;;;;;;;;24.40;47.90;;;;;;5033195;28;20456;-57
2022/06/09 18:56:28;;;;;;;;;;;24.40;47.90;;;;;;5033515;28;19913;-57
2022/06/09 18:58:56;;;;;;;;;;;24.30;48.30;;;;;;5033661;28;19912;-58
2022/06/09 19:01:22;;;;;;;;;;;24.30;47.60;;;;;;5033263;28;19951;-58
2022/06/09 19:03:48;;;;;;;;;;;24.30;47.90;;;;;;5033041;28;20296;-58
2022/06/09 19:06:14;;;;;;;;;;;24.30;48.30;;;;;;5033235;28;20317;-58
2022/06/09 19:08:41;;;;;;;;;;;24.30;49.00;;;;;;5028749;28;19905;-58
2022/06/09 19:11:08;;;;;;;;;;;24.30;47.50;;;;;;5032208;28;20334;-58
2022/06/09 19:13:37;;;;;;;;;;;24.20;47.60;;;;;;5033240;28;20476;-61
2022/06/09 19:16:03;;;;;;;;;;;24.10;48.10;;;;;;5032949;28;19915;-64
2022/06/09 19:18:29;;;;;;;;;;;24.10;48.10;;;;;;5032425;28;19940;-58
2022/06/09 19:20:54;;;;;;;;;;;24.10;48.80;;;;;;5032825;28;19909;-59
2022/06/09 19:23:24;;;;;;;;;;;24.10;48.20;;;;;;5032796;28;19913;-55
2022/06/09 19:25:50;;;;;;;;;;;24.10;48.40;;;;;;5032937;28;20282;-57
2022/06/09 19:28:17;;;;;;;;;;;24.00;48.50;;;;;;5032626;28;20300;-56
2022/06/09 19:30:43;;;;;;;;;;;23.90;48.90;;;;;;5032364;28;19917;-55
2022/06/09 19:33:09;;;;;;;;;;;23.90;49.20;;;;;;5032510;28;19916;-56
2022/06/09 19:35:35;;;;;;;;;;;23.90;48.80;;;;;;5032635;28;19912;-57
2022/06/09 19:38:01;;;;;;;;;;;23.80;49.10;;;;;;5032233;28;19905;-56
2022/06/09 19:40:27;;;;;;;;;;;23.80;49.80;;;;;;5032513;28;20008;-56
2022/06/09 19:42:53;;;;;;;;;;;23.80;50.30;;;;;;5032193;28;19932;-58
2022/06/09 19:45:21;;;;;;;;;;;23.70;50.50;;;;;;5032126;28;20373;-58
2022/06/09 19:47:48;;;;;;;;;;;23.80;50.60;;;;;;5032110;28;20020;-58
2022/06/09 19:50:23;;;;;;;;;;;23.70;50.90;;;;;;5029378;28;19909;-57
2022/06/09 19:52:48;;;;;;;;;;;23.50;50.60;;;;;;5031890;28;19921;-58
2022/06/09 19:55:14;;;;;;;;;;;23.30;51.20;;;;;;5032251;28;19909;-58
2022/06/09 19:57:40;;;;;;;;;;;23.20;51.30;;;;;;5032011;28;20004;-58
2022/06/09 20:00:09;;;;;;;;;;;23.10;51.50;;;;;;5030448;28;19917;-53
2022/06/09 20:02:34;;;;;;;;;;;23.10;51.90;;;;;;5025417;28;20381;-58
2022/06/09 20:05:00;;;;;;;;;;;23.10;52.10;;;;;;5023192;28;19928;-58
2022/06/09 20:07:26;;;;;;;;;;;23.10;52.10;;;;;;5023624;28;19913;-58
2022/06/09 20:09:51;;;;;;;;;;;23.20;52.40;;;;;;5030185;28;19909;-60
2022/06/09 20:12:17;;;;;;;;;;;23.20;52.70;;;;;;5030715;28;19909;-56
2022/06/09 20:14:43;;;;;;;;;;;23.10;52.90;;;;;;5019248;28;19914;-55
2022/06/09 20:17:20;;;;;;;;;;;23.10;53.70;;;;;;5020368;28;19909;-58
2022/06/09 20:19:46;;;;;;;;;;;22.90;54.70;;;;;;5023118;28;20403;-58
2022/06/09 20:22:13;;;;;;;;;;;22.80;54.10;;;;;;5019099;28;20439;-58
2022/06/09 20:24:39;;;;;;;;;;;22.80;54.10;;;;;;5021800;28;19928;-57
2022/06/09 20:27:10;;;;;;;;;;;22.80;54.50;;;;;;5021494;28;19928;-58
2022/06/09 20:29:36;;;;;;;;;;;22.70;54.60;;;;;;5019056;28;19995;-56
2022/06/09 20:32:02;;;;;;;;;;;22.80;55.00;;;;;;5021003;28;19909;-57
2022/06/09 20:34:28;;;;;;;;;;;22.70;55.30;;;;;;5005405;28;19909;-58
2022/06/09 20:36:54;;;;;;;;;;;22.70;55.60;;;;;;5028696;28;19913;-56
2022/06/09 20:39:19;;;;;;;;;;;22.70;55.30;;;;;;5023002;28;19909;-58
2022/06/09 20:41:45;;;;;;;;;;;22.60;55.20;;;;;;5023229;28;19949;-57
2022/06/09 20:44:10;;;;;;;;;;;22.50;56.00;;;;;;5022824;28;19913;-58
2022/06/09 20:46:38;;;;;;;;;;;22.50;55.90;;;;;;5029135;28;20467;-56
2022/06/09 20:49:05;;;;;;;;;;;22.60;56.60;;;;;;5031364;28;20278;-56
2022/06/09 20:51:32;;;;;;;;;;;22.60;56.10;;;;;;5031713;28;19913;-58
2022/06/09 20:54:00;;;;;;;;;;;22.60;56.00;;;;;;5023213;28;20404;-57
2022/06/09 20:56:27;;;;;;;;;;;22.60;56.50;;;;;;5030705;28;19909;-57
2022/06/09 20:58:52;;;;;;;;;;;22.50;57.70;;;;;;5023459;28;20036;-56
2022/06/09 21:01:18;;;;;;;;;;;22.40;57.50;;;;;;5029938;28;19909;-57
2022/06/09 21:03:45;;;;;;;;;;;22.40;57.00;;;;;;5026468;28;20267;-57
2022/06/09 21:06:10;;;;;;;;;;;22.40;57.60;;;;;;5031345;28;19913;-57
2022/06/09 21:08:36;;;;;;;;;;;22.30;58.30;;;;;;5026544;28;19956;-57
2022/06/09 21:19:15;;;;;;;;;;;22.10;58.70;;;;;;5028829;28;19916;-57
2022/06/09 21:21:40;;;;;;;;;;;22.00;60.30;;;;;;5031024;28;19909;-55
2022/06/09 21:24:06;;;;;;;;;;;21.80;59.10;;;;;;5031013;28;19916;-56
2022/06/09 21:26:32;;;;;;;;;;;21.80;58.70;;;;;;5024785;28;19910;-57
2022/06/09 21:28:58;;;;;;;;;;;21.80;58.70;;;;;;5028557;28;19916;-57
2022/06/09 21:31:23;;;;;;;;;;;21.80;58.80;;;;;;5030485;28;20274;-57
2022/06/09 21:33:51;;;;;;;;;;;21.80;58.40;;;;;;5029002;28;20009;-57
2022/06/09 21:36:17;;;;;;;;;;;21.80;58.50;;;;;;5034521;28;20377;-55
2022/06/09 21:38:43;;;;;;;;;;;21.80;58.20;;;;;;5029894;28;19975;-55
2022/06/09 21:41:09;;;;;;;;;;;21.80;58.70;;;;;;5034625;28;20448;-54
2022/06/09 21:43:34;;;;;;;;;;;21.80;58.60;;;;;;5034866;28;19912;-56
2022/06/09 21:46:00;;;;;;;;;;;21.80;58.90;;;;;;5034201;28;20381;-58
2022/06/09 21:48:28;;;;;;;;;;;21.80;58.80;;;;;;5034456;28;19913;-57
2022/06/09 21:50:54;;;;;;;;;;;21.80;58.50;;;;;;5034168;28;19909;-57
2022/06/09 21:53:19;;;;;;;;;;;21.80;58.50;;;;;;5032899;28;19923;-57
2022/06/09 21:55:46;;;;;;;;;;;21.80;58.60;;;;;;5030103;28;19999;-58
2022/06/09 21:58:12;;;;;;;;;;;21.70;59.00;;;;;;5032923;28;19992;-56
2022/06/09 22:00:41;;;;;;;;;;;21.70;59.40;;;;;;5034351;28;20408;-56
2022/06/09 22:03:06;;;;;;;;;;;21.60;59.00;;;;;;5032877;28;19909;-55
2022/06/09 22:05:32;;;;;;;;;;;21.60;59.60;;;;;;5029969;28;19920;-58
2022/06/09 22:07:58;;;;;;;;;;;21.50;59.70;;;;;;5024611;28;20281;-67
2022/06/09 22:10:26;;;;;;;;;;;21.50;59.70;;;;;;5030933;28;20007;-65
2022/06/09 22:12:52;;;;;;;;;;;21.40;60.00;;;;;;5029428;28;19909;-67
2022/06/09 22:15:17;;;;;;;;;;;21.40;60.80;;;;;;5015836;28;19909;-66
2022/06/09 22:17:43;;;;;;;;;;;21.30;60.50;;;;;;5013125;28;19916;-66
2022/06/09 22:20:12;;;;;;;;;;;21.20;61.20;;;;;;5034343;28;19913;-66
2022/06/09 22:22:38;;;;;;;;;;;21.20;61.40;;;;;;5016162;28;19920;-66
2022/06/09 22:25:04;;;;;;;;;;;21.10;61.20;;;;;;5025674;28;19909;-67
2022/06/09 22:27:30;;;;;;;;;;;21.10;62.20;;;;;;5014680;28;19920;-66
2022/06/09 22:29:55;;;;;;;;;;;21.10;61.40;;;;;;5033472;28;20285;-66
2022/06/09 22:32:21;;;;;;;;;;;21.00;61.20;;;;;;5026264;28;19910;-66
2022/06/09 22:34:47;;;;;;;;;;;21.10;61.40;;;;;;5030216;28;20542;-66
2022/06/09 22:37:12;;;;;;;;;;;21.10;61.00;;;;;;5030032;28;19943;-66
2022/06/09 22:39:38;;;;;;;;;;;21.10;61.20;;;;;;5023878;28;19912;-67
2022/06/09 22:42:03;;;;;;;;;;;21.10;61.50;;;;;;5028112;28;19937;-67
2022/06/09 22:44:29;;;;;;;;;;;21.10;61.80;;;;;;5032248;28;19912;-68
2022/06/09 22:46:54;;;;;;;;;;;21.10;61.90;;;;;;5029049;28;20400;-68
2022/06/09 22:49:20;;;;;;;;;;;21.00;62.20;;;;;;5024516;28;20389;-68
2022/06/09 22:51:48;;;;;;;;;;;20.90;62.10;;;;;;5031601;28;19955;-67
2022/06/09 22:54:14;;;;;;;;;;;20.90;61.80;;;;;;5032964;28;19959;-68
2022/06/09 22:56:39;;;;;;;;;;;20.90;62.70;;;;;;5033132;28;19913;-68
2022/06/09 22:59:05;;;;;;;;;;;20.80;61.70;;;;;;5033568;28;20317;-67
2022/06/09 23:01:31;;;;;;;;;;;20.80;61.90;;;;;;5031789;28;20592;-67
2022/06/09 23:03:56;;;;;;;;;;;20.80;62.80;;;;;;5029080;28;19955;-67
2022/06/09 23:06:23;;;;;;;;;;;20.80;62.50;;;;;;5024439;28;19909;-67
2022/06/09 23:08:48;;;;;;;;;;;20.80;61.90;;;;;;5020128;28;20005;-67
2022/06/09 23:11:14;;;;;;;;;;;20.80;61.70;;;;;;5032061;28;20400;-67
2022/06/09 23:13:40;;;;;;;;;;;20.80;61.80;;;;;;5027471;28;19912;-67
2022/06/09 23:16:09;;;;;;;;;;;20.80;61.80;;;;;;5023365;28;19910;-67
2022/06/09 23:18:35;;;;;;;;;;;20.80;61.60;;;;;;5032289;28;19971;-67
2022/06/09 23:21:00;;;;;;;;;;;20.80;62.20;;;;;;5020545;28;19959;-67
2022/06/09 23:23:26;;;;;;;;;;;20.80;62.40;;;;;;5023892;28;19924;-68
2022/06/09 23:25:54;;;;;;;;;;;20.80;62.30;;;;;;5030825;28;19916;-67
2022/06/09 23:28:20;;;;;;;;;;;20.80;62.20;;;;;;5032730;28;19913;-67
2022/06/09 23:30:46;;;;;;;;;;;20.80;63.00;;;;;;5032921;28;20381;-67
2022/06/09 23:33:12;;;;;;;;;;;20.80;63.20;;;;;;5032287;28;19909;-68
2022/06/09 23:35:40;;;;;;;;;;;20.70;62.70;;;;;;5031191;28;20007;-67
2022/06/09 23:38:05;;;;;;;;;;;20.60;63.30;;;;;;5028225;28;19909;-67
2022/06/09 23:40:33;;;;;;;;;;;20.60;63.40;;;;;;5030915;28;19916;-67
2022/06/09 23:42:59;;;;;;;;;;;20.50;64.20;;;;;;5032383;28;19943;-67
2022/06/09 23:45:35;;;;;;;;;;;20.40;63.70;;;;;;5026973;28;20385;-68
2022/06/09 23:48:01;;;;;;;;;;;20.40;64.10;;;;;;5028653;28;19956;-68
2022/06/09 23:50:27;;;;;;;;;;;20.40;63.30;;;;;;5032296;28;19951;-67
2022/06/09 23:52:53;;;;;;;;;;;20.40;63.00;;;;;;5032187;28;20382;-67
2022/06/09 23:55:18;;;;;;;;;;;20.40;62.40;;;;;;5031163;28;20016;-67
2022/06/09 23:57:45;;;;;;;;;;;20.50;63.10;;;;;;5031229;28;19909;-67
